MV Lockmaster — WDF4136 — position and weather

sailwx.info

Track history (hours):
 
Tides and Currents Weather Stations Pressure Air Temp Water Temp Dewpoint Dewpoint Depression Visibility Wind Speed Wind Dir Waves Ship Positions

MV Lockmaster

Owner: River Construction, Metaire, LA. More information available from US FCC via Universal Licensing System and Coast Guard Vessel Documentation Center.

Last reported at 2015-May-03 11:06 UTC. Time now 2015-May-04 01:59 UTC.
Position N 29°60' W 089°59'.

Type: Towing. MMSI: 367448420.

Date/timePositionNaut miles runAvg speedWind from/ knotsBaromVisibWave heightAir tempDewpointWater temp
2015-May-03 11:06N 29°60' W 089°59'0 0.0
2015-May-03 10:29N 29°60' W 089°59'0 0.0
2015-May-03 06:24N 29°60' W 089°59'0 0.0
2015-May-03 05:30N 30°00' W 089°59'0 0.0
2015-May-03 04:19N 29°60' W 089°59'0 0.0
2015-May-03 03:32N 30°00' W 089°59'3 2.2
2015-May-03 02:14N 29°58' W 090°02'2 2.3
2015-May-03 01:30N 29°57' W 090°00'1 0.6
2015-May-02 23:27N 29°57' W 090°01'1 0.8
2015-May-02 22:31N 29°58' W 090°02'3 2.5
2015-May-02 21:30N 29°60' W 089°60'0 0.1
2015-May-02 20:33N 30°00' W 089°59'0 0.0
2015-May-02 19:32N 30°00' W 089°59'0 0.1
2015-May-02 18:33N 29°60' W 089°59'3 2.9
2015-May-02 17:33N 29°58' W 090°02'4 4.3
2015-May-02 16:32N 29°55' W 090°05'3 3.0
2015-May-02 15:30N 29°52' W 090°04'1 1.0
2015-May-02 14:31N 29°53' W 090°04'2 2.2
2015-May-02 13:27N 29°55' W 090°05'3 2.9
2015-May-02 12:32N 29°57' W 090°03'2 1.8
2015-May-02 11:32N 29°58' W 090°02'3 2.6
2015-May-02 10:29N 29°60' W 089°60'3 3.0
2015-May-02 09:33N 29°58' W 090°02'0 0.0
2015-May-02 08:33N 29°58' W 090°02'4 2.9
2015-May-02 07:11N 29°56' W 089°58'4 4.0
2015-May-02 06:15N 29°57' W 090°02'1 1.1
2015-May-02 05:29N 29°58' W 090°02'3 0.1
2015-May-01 09:16N 29°60' W 089°59'0 0.0
2015-May-01 08:29N 29°60' W 089°59'0 0.1
2015-May-01 07:13N 29°60' W 089°59'2 0.7
2015-May-01 04:19N 30°01' W 090°02'3 2.4
2015-May-01 03:11N 29°58' W 090°02'0 0.2
2015-May-01 02:29N 29°58' W 090°02'1 0.6
2015-May-01 01:22N 29°57' W 090°02'3 3.6
2015-May-01 00:29N 29°55' W 090°05'0 0.4
2015-Apr-30 23:17N 29°55' W 090°05'2 1.2
2015-Apr-30 21:33N 29°53' W 090°04'1 0.4
2015-Apr-30 20:09N 29°52' W 090°04'1 1.9
2015-Apr-30 19:29N 29°51' W 090°04'0 0.0
2015-Apr-30 18:27N 29°51' W 090°04'0 0.0
2015-Apr-30 17:33N 29°51' W 090°04'0 0.0
2015-Apr-30 16:18N 29°51' W 090°04'0 0.0
2015-Apr-30 15:17N 29°51' W 090°04'1 1.6
2015-Apr-30 14:27N 29°49' W 090°04'6 2.0
2015-Apr-30 11:16N 29°54' W 089°59'6 0.3
2015-Apr-29 12:28N 30°00' W 089°59'0 0.0
2015-Apr-29 09:33N 29°60' W 089°59'0 0.0
2015-Apr-29 08:32N 29°60' W 089°59'0 0.0
2015-Apr-29 07:22N 29°60' W 089°59'0 0.0
2015-Apr-29 06:20N 29°60' W 089°59'0 0.0
2015-Apr-29 05:17N 29°60' W 089°59'0 0.0
2015-Apr-29 04:32N 29°60' W 089°59'0 0.0
2015-Apr-29 03:28N 29°60' W 089°59'0 0.0
2015-Apr-29 02:33N 29°60' W 089°59'0 0.0
2015-Apr-29 01:32N 29°60' W 089°59'0 0.0
2015-Apr-29 00:33N 29°60' W 089°59'0 0.0
2015-Apr-28 23:31N 30°00' W 089°59'0 0.0
2015-Apr-28 22:32N 30°00' W 089°59'0 0.0
2015-Apr-28 21:29N 30°00' W 089°59'0 0.0
2015-Apr-28 20:33N 30°00' W 089°59'0 0.0
2015-Apr-28 19:33N 30°00' W 089°59'3 2.8
2015-Apr-28 18:32N 29°58' W 090°02'4 4.4
2015-Apr-28 17:32N 29°55' W 090°05'1 0.7
2015-Apr-28 16:15N 29°54' W 090°05'1 1.2
2015-Apr-28 15:32N 29°55' W 090°05'4 0.2
2015-Apr-27 18:33N 29°57' W 090°01'3 0.4
2015-Apr-27 09:33N 29°60' W 089°59'0 0.0
2015-Apr-27 08:33N 29°60' W 089°59'1 0.6
2015-Apr-27 07:14N 29°60' W 090°00'2 2.3
2015-Apr-27 06:32N 29°58' W 090°01'2 1.8
2015-Apr-27 05:10N 29°60' W 089°59'0 0.0
2015-Apr-27 04:23N 29°60' W 089°59'0 0.0
2015-Apr-27 03:22N 29°60' W 089°59'0 0.0
2015-Apr-27 02:33N 29°60' W 089°59'0 0.1
2015-Apr-27 01:26N 29°60' W 089°59'0 0.0
2015-Apr-27 00:32N 29°60' W 089°59'0 0.0
2015-Apr-26 23:33N 29°60' W 089°60'0 0.0
2015-Apr-26 22:32N 29°60' W 089°60'0 0.0
2015-Apr-26 21:26N 29°60' W 089°60'0 0.0
2015-Apr-26 20:33N 29°60' W 089°59'0 0.0
2015-Apr-26 19:33N 29°60' W 089°59'0 0.0
2015-Apr-26 18:28N 29°60' W 089°59'0 0.0
2015-Apr-26 17:33N 29°60' W 089°59'0 0.0
2015-Apr-26 16:32N 29°60' W 089°59'0 0.0
2015-Apr-26 15:32N 29°60' W 089°59'0 0.0
2015-Apr-26 14:28N 29°60' W 089°59'0 0.0
2015-Apr-25 21:21N 29°60' W 089°59'3 1.3
2015-Apr-25 19:04N 29°58' W 090°02'2 0.6
2015-Apr-25 15:15N 29°60' W 090°01'2 1.2
2015-Apr-25 13:19N 29°58' W 090°02'1 1.4
2015-Apr-25 12:27N 29°59' W 090°01'1 0.3
2015-Apr-25 09:31N 29°58' W 090°02'1 0.5
2015-Apr-25 08:14N 29°58' W 090°02'0 0.6
2015-Apr-25 07:30N 29°57' W 090°02'1 0.8
2015-Apr-25 06:33N 29°58' W 090°02'0 0.2
2015-Apr-25 05:32N 29°58' W 090°02'2 1.9
2015-Apr-25 04:32N 29°60' W 090°00'1 0.7
2015-Apr-25 03:32N 30°00' W 089°59'0 0.0
2015-Apr-25 02:25N 30°00' W 089°59'0 0.0
2015-Apr-25 01:33N 30°00' W 089°59'0 0.2
2015-Apr-25 00:33N 29°60' W 089°59'0 0.2
2015-Apr-24 23:30N 29°60' W 089°59'0 0.0
2015-Apr-24 22:31N 29°60' W 089°59'0 0.0
2015-Apr-24 21:29N 29°60' W 089°59'0 0.0
2015-Apr-24 20:33N 29°60' W 089°59'1 1.1
2015-Apr-24 19:32N 29°60' W 090°01'3 3.0
2015-Apr-24 18:31N 29°57' W 090°00'3 0.1
2015-Apr-23 19:25N 30°00' W 089°59'0 0.0
2015-Apr-23 18:30N 30°00' W 089°59'0 0.0
2015-Apr-23 17:18N 30°00' W 089°59'0 0.0
2015-Apr-23 16:29N 30°00' W 089°59'0 0.0
2015-Apr-23 15:28N 29°60' W 089°59'0 0.0
2015-Apr-23 14:33N 30°00' W 089°59'0 0.0
2015-Apr-23 13:25N 30°00' W 089°59'0 0.0
2015-Apr-23 12:33N 29°60' W 089°59'0 0.0
2015-Apr-23 11:33N 29°60' W 089°59'  
Track history (hours):
 
Tides and Currents Weather Stations Pressure Air Temp Water Temp Dewpoint Dewpoint Depression Visibility Wind Speed Wind Dir Waves Ship Positions

MV Lockmaster

Owner: River Construction, Metaire, LA. More information available from US FCC via Universal Licensing System and Coast Guard Vessel Documentation Center.

Last reported at 2015-May-03 11:06 UTC. Time now 2015-May-04 01:59 UTC.
Position N 29°60' W 089°59'.

Type: Towing. MMSI: 367448420.

Date/timePositionNaut miles runAvg speedWind from/ knotsBaromVisibWave heightAir tempDewpointWater temp
2015-May-03 11:06N 29°60' W 089°59'0 0.0
2015-May-03 10:29N 29°60' W 089°59'0 0.0
2015-May-03 06:24N 29°60' W 089°59'0 0.0
2015-May-03 05:30N 30°00' W 089°59'0 0.0
2015-May-03 04:19N 29°60' W 089°59'0 0.0
2015-May-03 03:32N 30°00' W 089°59'3 2.2
2015-May-03 02:14N 29°58' W 090°02'2 2.3
2015-May-03 01:30N 29°57' W 090°00'1 0.6
2015-May-02 23:27N 29°57' W 090°01'1 0.8
2015-May-02 22:31N 29°58' W 090°02'3 2.5
2015-May-02 21:30N 29°60' W 089°60'0 0.1
2015-May-02 20:33N 30°00' W 089°59'0 0.0
2015-May-02 19:32N 30°00' W 089°59'0 0.1
2015-May-02 18:33N 29°60' W 089°59'3 2.9
2015-May-02 17:33N 29°58' W 090°02'4 4.3
2015-May-02 16:32N 29°55' W 090°05'3 3.0
2015-May-02 15:30N 29°52' W 090°04'1 1.0
2015-May-02 14:31N 29°53' W 090°04'2 2.2
2015-May-02 13:27N 29°55' W 090°05'3 2.9
2015-May-02 12:32N 29°57' W 090°03'2 1.8
2015-May-02 11:32N 29°58' W 090°02'3 2.6
2015-May-02 10:29N 29°60' W 089°60'3 3.0
2015-May-02 09:33N 29°58' W 090°02'0 0.0
2015-May-02 08:33N 29°58' W 090°02'4 2.9
2015-May-02 07:11N 29°56' W 089°58'4 4.0
2015-May-02 06:15N 29°57' W 090°02'1 1.1
2015-May-02 05:29N 29°58' W 090°02'3 0.1
2015-May-01 09:16N 29°60' W 089°59'0 0.0
2015-May-01 08:29N 29°60' W 089°59'0 0.1
2015-May-01 07:13N 29°60' W 089°59'2 0.7
2015-May-01 04:19N 30°01' W 090°02'3 2.4
2015-May-01 03:11N 29°58' W 090°02'0 0.2
2015-May-01 02:29N 29°58' W 090°02'1 0.6
2015-May-01 01:22N 29°57' W 090°02'3 3.6
2015-May-01 00:29N 29°55' W 090°05'0 0.4
2015-Apr-30 23:17N 29°55' W 090°05'2 1.2
2015-Apr-30 21:33N 29°53' W 090°04'1 0.4
2015-Apr-30 20:09N 29°52' W 090°04'1 1.9
2015-Apr-30 19:29N 29°51' W 090°04'0 0.0
2015-Apr-30 18:27N 29°51' W 090°04'0 0.0
2015-Apr-30 17:33N 29°51' W 090°04'0 0.0
2015-Apr-30 16:18N 29°51' W 090°04'0 0.0
2015-Apr-30 15:17N 29°51' W 090°04'1 1.6
2015-Apr-30 14:27N 29°49' W 090°04'6 2.0
2015-Apr-30 11:16N 29°54' W 089°59'6 0.3
2015-Apr-29 12:28N 30°00' W 089°59'0 0.0
2015-Apr-29 09:33N 29°60' W 089°59'0 0.0
2015-Apr-29 08:32N 29°60' W 089°59'0 0.0
2015-Apr-29 07:22N 29°60' W 089°59'0 0.0
2015-Apr-29 06:20N 29°60' W 089°59'0 0.0
2015-Apr-29 05:17N 29°60' W 089°59'0 0.0
2015-Apr-29 04:32N 29°60' W 089°59'0 0.0
2015-Apr-29 03:28N 29°60' W 089°59'0 0.0
2015-Apr-29 02:33N 29°60' W 089°59'0 0.0
2015-Apr-29 01:32N 29°60' W 089°59'0 0.0
2015-Apr-29 00:33N 29°60' W 089°59'0 0.0
2015-Apr-28 23:31N 30°00' W 089°59'0 0.0
2015-Apr-28 22:32N 30°00' W 089°59'0 0.0
2015-Apr-28 21:29N 30°00' W 089°59'0 0.0
2015-Apr-28 20:33N 30°00' W 089°59'0 0.0
2015-Apr-28 19:33N 30°00' W 089°59'3 2.8
2015-Apr-28 18:32N 29°58' W 090°02'4 4.4
2015-Apr-28 17:32N 29°55' W 090°05'1 0.7
2015-Apr-28 16:15N 29°54' W 090°05'1 1.2
2015-Apr-28 15:32N 29°55' W 090°05'4 0.2
2015-Apr-27 18:33N 29°57' W 090°01'3 0.4
2015-Apr-27 09:33N 29°60' W 089°59'0 0.0
2015-Apr-27 08:33N 29°60' W 089°59'1 0.6
2015-Apr-27 07:14N 29°60' W 090°00'2 2.3
2015-Apr-27 06:32N 29°58' W 090°01'2 1.8
2015-Apr-27 05:10N 29°60' W 089°59'0 0.0
2015-Apr-27 04:23N 29°60' W 089°59'0 0.0
2015-Apr-27 03:22N 29°60' W 089°59'0 0.0
2015-Apr-27 02:33N 29°60' W 089°59'0 0.1
2015-Apr-27 01:26N 29°60' W 089°59'0 0.0
2015-Apr-27 00:32N 29°60' W 089°59'0 0.0
2015-Apr-26 23:33N 29°60' W 089°60'0 0.0
2015-Apr-26 22:32N 29°60' W 089°60'0 0.0
2015-Apr-26 21:26N 29°60' W 089°60'0 0.0
2015-Apr-26 20:33N 29°60' W 089°59'0 0.0
2015-Apr-26 19:33N 29°60' W 089°59'0 0.0
2015-Apr-26 18:28N 29°60' W 089°59'0 0.0
2015-Apr-26 17:33N 29°60' W 089°59'0 0.0
2015-Apr-26 16:32N 29°60' W 089°59'0 0.0
2015-Apr-26 15:32N 29°60' W 089°59'0 0.0
2015-Apr-26 14:28N 29°60' W 089°59'0 0.0
2015-Apr-25 21:21N 29°60' W 089°59'3 1.3
2015-Apr-25 19:04N 29°58' W 090°02'2 0.6
2015-Apr-25 15:15N 29°60' W 090°01'2 1.2
2015-Apr-25 13:19N 29°58' W 090°02'1 1.4
2015-Apr-25 12:27N 29°59' W 090°01'1 0.3
2015-Apr-25 09:31N 29°58' W 090°02'1 0.5
2015-Apr-25 08:14N 29°58' W 090°02'0 0.6
2015-Apr-25 07:30N 29°57' W 090°02'1 0.8
2015-Apr-25 06:33N 29°58' W 090°02'0 0.2
2015-Apr-25 05:32N 29°58' W 090°02'2 1.9
2015-Apr-25 04:32N 29°60' W 090°00'1 0.7
2015-Apr-25 03:32N 30°00' W 089°59'0 0.0
2015-Apr-25 02:25N 30°00' W 089°59'0 0.0
2015-Apr-25 01:33N 30°00' W 089°59'0 0.2
2015-Apr-25 00:33N 29°60' W 089°59'0 0.2
2015-Apr-24 23:30N 29°60' W 089°59'0 0.0
2015-Apr-24 22:31N 29°60' W 089°59'0 0.0
2015-Apr-24 21:29N 29°60' W 089°59'0 0.0
2015-Apr-24 20:33N 29°60' W 089°59'1 1.1
2015-Apr-24 19:32N 29°60' W 090°01'3 3.0
2015-Apr-24 18:31N 29°57' W 090°00'3 0.1
2015-Apr-23 19:25N 30°00' W 089°59'0 0.0
2015-Apr-23 18:30N 30°00' W 089°59'0 0.0
2015-Apr-23 17:18N 30°00' W 089°59'0 0.0
2015-Apr-23 16:29N 30°00' W 089°59'0 0.0
2015-Apr-23 15:28N 29°60' W 089°59'0 0.0
2015-Apr-23 14:33N 30°00' W 089°59'0 0.0
2015-Apr-23 13:25N 30°00' W 089°59'0 0.0
2015-Apr-23 12:33N 29°60' W 089°59'0 0.0
2015-Apr-23 11:33N 29°60' W 089°59'  

Dump ship's entire track history